createdAt,value
2018-03-30T00:00:48.894Z,21.20
2018-03-30T00:01:48.874Z,21.80
2018-03-30T00:02:48.881Z,21.80
2018-03-30T00:03:48.891Z,22.80
2018-03-30T00:04:48.903Z,20.90
2018-03-30T00:05:48.916Z,22.80
2018-03-30T00:06:48.930Z,20.90
2018-03-30T00:07:48.938Z,21.60
2018-03-30T00:08:48.950Z,21.20
2018-03-30T00:09:48.962Z,21.80
2018-03-30T00:10:48.973Z,21.30
2018-03-30T00:11:48.985Z,22.50
2018-03-30T00:12:49.001Z,21.50
2018-03-30T00:13:49.012Z,21.60
2018-03-30T00:14:49.022Z,21.50
2018-03-30T00:15:49.036Z,21.40
2018-03-30T00:16:49.042Z,21.80
2018-03-30T00:17:49.056Z,21.50
2018-03-30T00:18:49.068Z,22.00
2018-03-30T00:19:49.078Z,21.60
2018-03-30T00:20:49.092Z,22.40
2018-03-30T00:21:49.103Z,21.80
2018-03-30T00:22:49.112Z,23.20
2018-03-30T00:23:49.126Z,22.50
2018-03-30T00:24:49.137Z,21.70
2018-03-30T00:25:49.153Z,22.00
2018-03-30T00:26:49.162Z,22.70
2018-03-30T00:27:49.170Z,21.90
2018-03-30T00:28:49.189Z,22.80
2018-03-30T00:29:49.196Z,21.30
2018-03-30T00:30:49.212Z,20.90
2018-03-30T00:31:49.216Z,21.90
2018-03-30T00:32:49.231Z,22.90
2018-03-30T00:33:49.240Z,22.00
2018-03-30T00:34:49.253Z,22.40
2018-03-30T00:35:49.268Z,21.90
2018-03-30T00:36:49.276Z,21.50
2018-03-30T00:37:49.290Z,22.30
2018-03-30T00:38:49.302Z,22.80
2018-03-30T00:39:49.311Z,21.70
2018-03-30T00:40:49.324Z,22.10
2018-03-30T00:41:49.337Z,23.00
2018-03-30T00:42:49.348Z,21.70
2018-03-30T00:43:49.356Z,22.80
2018-03-30T00:44:49.375Z,23.50
2018-03-30T00:45:49.381Z,22.30
2018-03-30T00:46:49.392Z,23.00
2018-03-30T00:47:49.402Z,22.20
2018-03-30T00:48:49.414Z,21.70
2018-03-30T00:49:49.430Z,22.20
2018-03-30T00:50:49.440Z,21.70
2018-03-30T00:51:49.451Z,22.40
2018-03-30T00:52:49.464Z,21.70
2018-03-30T00:53:49.472Z,22.50
2018-03-30T00:54:49.483Z,23.00
2018-03-30T00:55:49.495Z,22.20
2018-03-30T00:56:49.509Z,22.40
2018-03-30T00:57:49.521Z,22.40
2018-03-30T00:58:49.533Z,21.90
2018-03-30T00:59:49.543Z,21.90
2018-03-30T01:00:49.554Z,22.60
2018-03-30T01:01:49.566Z,21.80
2018-03-30T01:02:49.573Z,22.80
2018-03-30T01:03:49.587Z,22.40
2018-03-30T01:04:49.599Z,22.70
2018-03-30T01:05:49.610Z,22.10
2018-03-30T01:06:49.621Z,22.20
2018-03-30T01:07:49.633Z,22.20
2018-03-30T01:08:49.648Z,21.90
2018-03-30T01:09:49.657Z,21.10
2018-03-30T01:10:49.668Z,22.60
2018-03-30T01:11:49.679Z,21.80
2018-03-30T01:12:49.692Z,22.40
2018-03-30T01:13:49.707Z,22.40
2018-03-30T01:14:49.729Z,22.50
2018-03-30T01:15:49.729Z,22.60
2018-03-30T01:16:49.738Z,22.40
2018-03-30T01:17:49.748Z,21.40
2018-03-30T01:18:49.759Z,22.60
2018-03-30T01:19:49.771Z,21.90
2018-03-30T01:20:49.782Z,21.80
2018-03-30T01:21:49.793Z,22.00
2018-03-30T01:22:49.801Z,21.80
2018-03-30T01:23:49.808Z,21.90
2018-03-30T01:24:49.821Z,21.90
2018-03-30T01:25:49.831Z,22.10
2018-03-30T01:26:49.844Z,22.20
2018-03-30T01:27:49.854Z,21.90
2018-03-30T01:28:49.865Z,21.60
2018-03-30T01:29:49.876Z,21.80
2018-03-30T01:30:49.890Z,22.30
2018-03-30T01:31:49.900Z,22.10
2018-03-30T01:32:49.912Z,21.70
2018-03-30T01:33:49.923Z,21.20
2018-03-30T01:34:49.934Z,20.80
2018-03-30T01:35:49.946Z,22.00
2018-03-30T01:36:49.957Z,22.00
2018-03-30T01:37:49.970Z,22.20
2018-03-30T01:38:49.981Z,21.30
2018-03-30T01:39:49.990Z,21.90
2018-03-30T01:40:50.003Z,21.50
2018-03-30T01:41:50.014Z,21.70
2018-03-30T01:42:50.026Z,21.60
2018-03-30T01:43:50.046Z,21.30
2018-03-30T01:44:50.050Z,21.70
2018-03-30T01:45:50.060Z,21.20
2018-03-30T01:46:50.071Z,21.90
2018-03-30T01:47:50.082Z,21.30
2018-03-30T01:48:50.094Z,21.40
2018-03-30T01:50:50.516Z,22.30
2018-03-30T01:51:50.129Z,22.00
2018-03-30T01:52:50.141Z,21.20
2018-03-30T01:53:50.151Z,20.40
2018-03-30T01:54:50.162Z,20.70
2018-03-30T01:55:50.173Z,20.40
2018-03-30T01:56:50.189Z,20.30
2018-03-30T01:57:50.197Z,20.10
2018-03-30T01:58:50.208Z,20.30
2018-03-30T01:59:50.227Z,20.50
2018-03-30T02:00:50.233Z,20.90
2018-03-30T02:01:50.242Z,20.50
2018-03-30T02:02:50.253Z,21.00
2018-03-30T02:03:50.269Z,20.40
2018-03-30T02:04:50.279Z,20.50
2018-03-30T02:05:50.289Z,20.70
2018-03-30T02:06:50.298Z,19.60
2018-03-30T02:07:50.311Z,20.90
2018-03-30T02:08:50.327Z,20.30
2018-03-30T02:09:50.355Z,19.30
2018-03-30T02:10:50.353Z,19.90
2018-03-30T02:11:50.356Z,20.10
2018-03-30T02:12:50.369Z,19.90
2018-03-30T02:13:50.380Z,20.00
2018-03-30T02:14:50.392Z,19.30
2018-03-30T02:15:50.402Z,19.40
2018-03-30T02:16:50.414Z,18.90
2018-03-30T02:17:50.427Z,19.60
2018-03-30T02:18:50.438Z,19.40
2018-03-30T02:19:50.447Z,19.90
2018-03-30T02:20:50.460Z,18.80
2018-03-30T02:21:50.470Z,18.90
2018-03-30T02:22:50.481Z,19.30
2018-03-30T02:23:50.496Z,18.90
2018-03-30T02:24:50.505Z,19.20
2018-03-30T02:25:50.517Z,18.30
2018-03-30T02:26:50.528Z,18.90
2018-03-30T02:27:50.540Z,19.30
2018-03-30T02:28:50.550Z,19.30
2018-03-30T02:29:50.564Z,18.90
2018-03-30T02:30:50.578Z,18.50
2018-03-30T02:31:50.586Z,18.90
2018-03-30T02:32:50.598Z,18.10
2018-03-30T02:33:50.610Z,19.00
2018-03-30T02:34:50.620Z,18.80
2018-03-30T02:35:50.631Z,19.00
2018-03-30T02:36:50.643Z,18.40
2018-03-30T02:37:50.655Z,18.60
2018-03-30T02:38:50.665Z,18.90
2018-03-30T02:39:50.685Z,18.90
2018-03-30T02:40:50.701Z,18.50
2018-03-30T02:41:50.700Z,19.10
2018-03-30T02:42:50.728Z,18.30
2018-03-30T02:43:50.726Z,18.30
2018-03-30T02:44:50.734Z,18.30
2018-03-30T02:45:50.745Z,17.50
2018-03-30T02:46:50.756Z,18.30
2018-03-30T02:47:50.767Z,18.20
2018-03-30T02:48:50.995Z,19.00
2018-03-30T02:49:50.794Z,18.90
2018-03-30T02:50:50.803Z,18.10
2018-03-30T02:51:50.815Z,19.10
2018-03-30T02:52:50.827Z,18.20
2018-03-30T02:53:50.840Z,18.80
2018-03-30T02:54:50.850Z,19.40
2018-03-30T02:55:50.870Z,18.90
2018-03-30T02:56:50.876Z,18.30
2018-03-30T02:57:50.901Z,18.00
2018-03-30T02:58:50.893Z,18.20
2018-03-30T02:59:50.907Z,18.80
2018-03-30T03:00:50.919Z,17.70
2018-03-30T03:01:50.930Z,17.40
2018-03-30T03:02:50.942Z,17.70
2018-03-30T03:03:50.961Z,18.00
2018-03-30T03:04:50.981Z,18.60
2018-03-30T03:05:50.978Z,17.90
2018-03-30T03:06:50.987Z,17.90
2018-03-30T03:07:50.999Z,18.40
2018-03-30T03:08:51.012Z,17.90
2018-03-30T03:09:51.023Z,18.80
2018-03-30T03:10:51.034Z,18.60
2018-03-30T03:11:51.046Z,18.30
2018-03-30T03:12:51.058Z,18.40
2018-03-30T03:13:51.068Z,18.90
2018-03-30T03:14:51.080Z,17.90
2018-03-30T03:15:51.097Z,18.10
2018-03-30T03:16:51.106Z,17.60
2018-03-30T03:17:51.121Z,17.50
2018-03-30T03:18:51.138Z,18.50
2018-03-30T03:19:51.147Z,18.20
2018-03-30T03:20:51.151Z,17.60
2018-03-30T03:21:51.161Z,17.60
2018-03-30T03:22:51.174Z,18.60
2018-03-30T03:23:51.184Z,18.60
2018-03-30T03:24:51.197Z,17.90
2018-03-30T03:25:51.212Z,17.60
2018-03-30T03:26:51.225Z,17.60
2018-03-30T03:27:51.235Z,18.10
2018-03-30T03:28:51.243Z,17.40
2018-03-30T03:29:51.256Z,17.30
2018-03-30T03:30:51.268Z,17.70
2018-03-30T03:31:51.279Z,17.80
2018-03-30T03:32:51.293Z,17.20
2018-03-30T03:33:51.304Z,18.20
2018-03-30T03:34:51.314Z,17.90
2018-03-30T03:35:51.530Z,17.30
2018-03-30T03:36:51.336Z,17.70
2018-03-30T03:37:51.348Z,17.60
2018-03-30T03:38:51.357Z,16.90
2018-03-30T03:39:51.379Z,18.00
2018-03-30T03:40:51.384Z,17.30
2018-03-30T03:41:51.398Z,16.80
2018-03-30T03:42:51.404Z,17.30
2018-03-30T03:43:51.415Z,17.60
2018-03-30T03:44:51.428Z,16.80
2018-03-30T03:45:51.441Z,16.90
2018-03-30T03:46:51.451Z,16.90
2018-03-30T03:47:51.464Z,17.90
2018-03-30T03:48:51.479Z,17.40
2018-03-30T03:49:51.488Z,16.60
2018-03-30T03:50:51.500Z,17.00
2018-03-30T03:51:51.509Z,17.10
2018-03-30T03:52:51.522Z,17.00
2018-03-30T03:53:51.532Z,16.80
2018-03-30T03:54:51.549Z,17.50
2018-03-30T03:55:51.555Z,16.70
2018-03-30T03:56:51.570Z,17.60
2018-03-30T03:57:51.581Z,16.80
2018-03-30T03:58:51.591Z,16.80
2018-03-30T03:59:51.605Z,16.20
2018-03-30T04:00:51.613Z,16.50
2018-03-30T04:01:51.625Z,17.10
2018-03-30T04:02:51.642Z,16.40
2018-03-30T04:03:51.648Z,15.50
2018-03-30T04:04:51.661Z,15.90
2018-03-30T04:05:51.673Z,16.70
2018-03-30T04:06:51.730Z,17.00
2018-03-30T04:07:51.693Z,16.90
2018-03-30T04:08:51.708Z,15.90
2018-03-30T04:09:51.719Z,17.10
2018-03-30T04:10:51.734Z,16.20
2018-03-30T04:11:51.741Z,17.40
2018-03-30T04:12:51.767Z,16.30
2018-03-30T04:13:51.767Z,16.60
2018-03-30T04:14:51.779Z,15.40
2018-03-30T04:15:51.787Z,16.30
2018-03-30T04:16:51.799Z,15.80
2018-03-30T04:17:51.810Z,16.00
2018-03-30T04:18:51.822Z,16.40
2018-03-30T04:19:51.838Z,16.00
2018-03-30T04:20:51.845Z,16.40
2018-03-30T04:21:51.857Z,15.50
2018-03-30T04:22:51.867Z,15.90
2018-03-30T04:23:51.880Z,15.30
2018-03-30T04:24:51.891Z,16.80
2018-03-30T04:25:51.905Z,16.30
2018-03-30T04:26:51.916Z,16.20
2018-03-30T04:27:51.926Z,16.30
2018-03-30T04:28:51.938Z,16.60
2018-03-30T04:29:51.948Z,16.00
2018-03-30T04:30:51.969Z,15.70
2018-03-30T04:31:51.971Z,15.60
2018-03-30T04:32:51.984Z,16.40
2018-03-30T04:33:51.995Z,16.20
2018-03-30T04:34:52.010Z,16.20
2018-03-30T04:35:52.019Z,15.70
2018-03-30T04:36:52.029Z,16.20
2018-03-30T04:37:52.042Z,15.60
2018-03-30T04:38:52.052Z,16.30
2018-03-30T04:39:52.065Z,15.50
2018-03-30T04:40:52.072Z,15.60
2018-03-30T04:41:52.093Z,16.00
2018-03-30T04:42:52.097Z,16.20
2018-03-30T04:43:52.109Z,15.60
2018-03-30T04:44:52.121Z,15.20
2018-03-30T04:45:52.135Z,15.60
2018-03-30T04:46:52.144Z,15.40
2018-03-30T04:47:52.156Z,15.80
2018-03-30T04:48:52.164Z,15.30
2018-03-30T04:49:52.178Z,14.80
2018-03-30T04:50:52.195Z,15.20
2018-03-30T04:51:52.200Z,15.40
2018-03-30T04:52:52.232Z,15.50
2018-03-30T04:53:52.225Z,15.50
2018-03-30T04:54:52.233Z,15.70
2018-03-30T04:55:52.245Z,14.80
2018-03-30T04:56:52.258Z,15.00
2018-03-30T04:57:52.269Z,14.80
2018-03-30T04:58:52.282Z,15.00
2018-03-30T04:59:52.292Z,14.70
2018-03-30T05:00:52.303Z,14.80
2018-03-30T05:01:52.315Z,14.90
2018-03-30T05:02:52.327Z,14.50
2018-03-30T05:03:52.339Z,14.40
2018-03-30T05:04:52.349Z,15.60
2018-03-30T05:05:52.360Z,15.20
2018-03-30T05:06:52.375Z,14.60
2018-03-30T05:07:52.391Z,14.90
2018-03-30T05:08:52.401Z,14.50
2018-03-30T05:09:52.413Z,14.90
2018-03-30T05:10:52.416Z,15.00
2018-03-30T05:11:52.438Z,14.50
2018-03-30T05:12:52.443Z,14.50
2018-03-30T05:13:52.454Z,14.30
2018-03-30T05:14:52.469Z,14.30
2018-03-30T05:15:52.474Z,14.70
2018-03-30T05:16:52.487Z,14.50
2018-03-30T05:17:52.499Z,14.40
2018-03-30T05:18:52.510Z,14.20
2018-03-30T05:19:52.520Z,14.30
2018-03-30T05:20:52.534Z,14.10
2018-03-30T05:21:52.548Z,14.00
2018-03-30T05:22:52.555Z,13.70
2018-03-30T05:23:52.570Z,13.70
2018-03-30T05:24:52.579Z,13.60
2018-03-30T05:25:52.592Z,13.20
2018-03-30T05:26:52.604Z,14.40
2018-03-30T05:27:52.614Z,14.00
2018-03-30T05:28:52.644Z,13.70
2018-03-30T05:29:52.638Z,13.30
2018-03-30T05:30:52.648Z,14.00
2018-03-30T05:31:52.661Z,13.80
2018-03-30T05:32:52.676Z,14.50
2018-03-30T05:33:52.685Z,14.10
2018-03-30T05:34:52.701Z,14.40
2018-03-30T05:35:52.706Z,14.00
2018-03-30T05:36:52.719Z,13.20
2018-03-30T05:37:52.732Z,13.20
2018-03-30T05:38:52.747Z,13.20
2018-03-30T05:39:52.754Z,13.10
2018-03-30T05:40:52.767Z,13.50
2018-03-30T05:41:52.777Z,12.80
2018-03-30T05:42:52.788Z,14.20
2018-03-30T05:43:52.800Z,13.20
2018-03-30T05:44:52.813Z,13.30
2018-03-30T05:45:52.823Z,13.10
2018-03-30T05:46:52.834Z,13.00
2018-03-30T05:47:52.850Z,13.30
2018-03-30T05:48:52.858Z,12.80
2018-03-30T05:49:52.874Z,13.40
2018-03-30T05:50:52.882Z,13.40
2018-03-30T05:51:52.894Z,13.00
2018-03-30T05:52:52.907Z,12.80
2018-03-30T05:53:52.933Z,12.10
2018-03-30T05:54:52.924Z,13.10
2018-03-30T05:55:52.937Z,12.70
2018-03-30T05:56:52.954Z,13.60
2018-03-30T05:57:52.962Z,12.70
2018-03-30T05:58:52.974Z,12.40
2018-03-30T05:59:52.985Z,13.00
2018-03-30T06:00:52.999Z,13.00
2018-03-30T06:01:53.008Z,13.40
2018-03-30T06:02:53.026Z,12.60
2018-03-30T06:03:53.032Z,13.00
2018-03-30T06:04:53.046Z,13.00
2018-03-30T06:05:53.058Z,12.80
2018-03-30T06:06:53.068Z,12.10
2018-03-30T06:07:53.085Z,12.70
2018-03-30T06:08:53.095Z,12.90
2018-03-30T06:09:53.108Z,12.40
2018-03-30T06:10:53.115Z,12.30
2018-03-30T06:11:53.128Z,12.40
2018-03-30T06:12:53.171Z,12.00
2018-03-30T06:13:53.153Z,12.40
2018-03-30T06:14:53.163Z,13.00
2018-03-30T06:15:53.175Z,12.40
2018-03-30T06:16:53.189Z,12.20
2018-03-30T06:17:53.200Z,12.50
2018-03-30T06:18:53.284Z,12.60
2018-03-30T06:19:53.222Z,13.00
2018-03-30T06:20:53.239Z,13.90
2018-03-30T06:21:53.254Z,13.00
2018-03-30T06:22:53.257Z,13.50
2018-03-30T06:23:53.270Z,13.70
2018-03-30T06:24:53.283Z,13.10
2018-03-30T06:25:53.295Z,13.60
2018-03-30T06:26:53.352Z,14.00
2018-03-30T06:27:53.319Z,13.70
2018-03-30T06:28:53.330Z,14.30
2018-03-30T06:29:53.348Z,13.30
2018-03-30T06:30:53.355Z,13.70
2018-03-30T06:31:53.368Z,12.80
2018-03-30T06:32:53.383Z,13.50
2018-03-30T06:33:53.393Z,13.40
2018-03-30T06:34:53.404Z,13.90
2018-03-30T06:35:53.415Z,13.10
2018-03-30T06:36:53.434Z,12.90
2018-03-30T06:37:53.441Z,12.00
2018-03-30T06:38:53.454Z,13.30
2018-03-30T06:39:53.470Z,13.50
2018-03-30T06:40:53.479Z,13.50
2018-03-30T06:41:53.491Z,13.50
2018-03-30T06:42:53.506Z,13.50
2018-03-30T06:43:53.515Z,13.30
2018-03-30T06:44:53.530Z,12.90
2018-03-30T06:45:53.539Z,13.20
2018-03-30T06:46:53.552Z,13.90
2018-03-30T06:47:53.565Z,13.90
2018-03-30T06:48:53.578Z,14.30
2018-03-30T06:49:53.598Z,14.40
2018-03-30T06:50:53.606Z,14.60
2018-03-30T06:51:53.623Z,13.60
2018-03-30T06:52:53.636Z,13.30
2018-03-30T06:53:53.637Z,14.70
2018-03-30T06:54:53.653Z,14.40
2018-03-30T06:55:53.664Z,14.60
2018-03-30T06:56:53.678Z,13.90
2018-03-30T06:57:53.691Z,13.60
2018-03-30T06:58:53.699Z,14.40
2018-03-30T06:59:53.713Z,14.50
2018-03-30T07:00:53.726Z,15.30
2018-03-30T07:01:53.740Z,14.70
2018-03-30T07:02:53.752Z,14.70
2018-03-30T07:03:53.764Z,14.80
2018-03-30T07:04:53.781Z,14.50
2018-03-30T07:05:53.791Z,13.90
2018-03-30T07:06:53.803Z,14.10
2018-03-30T07:07:53.816Z,14.00
2018-03-30T07:08:53.827Z,14.00
2018-03-30T07:09:53.839Z,14.40
2018-03-30T07:10:53.860Z,14.00
2018-03-30T07:11:53.862Z,13.90
2018-03-30T07:12:53.878Z,13.30
2018-03-30T07:13:53.888Z,14.20
2018-03-30T07:14:53.899Z,13.70
2018-03-30T07:15:53.913Z,14.10
2018-03-30T07:16:53.947Z,13.60
2018-03-30T07:17:53.940Z,14.60
2018-03-30T07:18:53.962Z,14.20
2018-03-30T07:19:53.964Z,13.70
2018-03-30T07:20:53.975Z,13.80
2018-03-30T07:21:53.991Z,14.50
2018-03-30T07:22:54.003Z,13.30
2018-03-30T07:23:54.013Z,13.10
2018-03-30T07:24:54.023Z,14.10
2018-03-30T07:25:54.044Z,14.10
2018-03-30T07:26:54.052Z,13.80
2018-03-30T07:27:54.062Z,13.10
2018-03-30T07:28:54.075Z,13.80
2018-03-30T07:29:54.089Z,14.10
2018-03-30T07:30:54.100Z,13.30
2018-03-30T07:31:54.115Z,13.10
2018-03-30T07:32:54.141Z,12.70
2018-03-30T07:33:54.144Z,12.70
2018-03-30T07:34:54.153Z,12.70
2018-03-30T07:35:54.161Z,12.40
2018-03-30T07:36:54.176Z,12.20
2018-03-30T07:37:54.189Z,12.00
2018-03-30T07:38:54.202Z,12.90
2018-03-30T07:39:54.216Z,12.00
2018-03-30T07:40:54.228Z,12.20
2018-03-30T07:41:54.240Z,12.00
2018-03-30T07:42:54.252Z,11.90
2018-03-30T07:43:54.269Z,12.30
2018-03-30T07:44:54.280Z,12.00
2018-03-30T07:45:54.292Z,11.40
2018-03-30T07:46:54.303Z,12.10
2018-03-30T07:47:54.319Z,11.40
2018-03-30T07:48:54.332Z,11.50
2018-03-30T07:49:54.345Z,11.60
2018-03-30T07:50:54.361Z,11.40
2018-03-30T07:51:54.370Z,11.40
2018-03-30T07:52:54.386Z,12.20
2018-03-30T07:53:54.396Z,11.30
2018-03-30T07:54:54.410Z,11.50
2018-03-30T07:55:54.422Z,11.10
2018-03-30T07:56:54.436Z,11.30
2018-03-30T07:57:54.462Z,11.40
2018-03-30T07:58:54.468Z,11.50
2018-03-30T07:59:54.478Z,10.40
2018-03-30T08:00:54.497Z,10.60
2018-03-30T08:01:54.506Z,10.10
2018-03-30T08:02:54.514Z,10.90
2018-03-30T08:03:54.533Z,10.90
2018-03-30T08:04:54.546Z,10.40
2018-03-30T08:05:54.556Z,10.40
2018-03-30T08:06:54.572Z,10.80
2018-03-30T08:07:54.584Z,10.30
2018-03-30T08:08:54.595Z,10.60
2018-03-30T08:09:54.611Z,10.00
2018-03-30T08:10:54.631Z,10.40
2018-03-30T08:11:54.636Z,10.20
2018-03-30T08:12:54.653Z,10.40
2018-03-30T08:13:54.669Z,10.30
2018-03-30T08:14:54.680Z,9.60
2018-03-30T08:15:54.717Z,9.70
2018-03-30T08:16:54.711Z,9.60
2018-03-30T08:17:54.720Z,9.60
2018-03-30T08:18:54.736Z,9.70
2018-03-30T08:19:54.748Z,9.90
2018-03-30T08:20:54.764Z,9.90
2018-03-30T08:21:54.777Z,9.90
2018-03-30T08:22:54.790Z,10.20
2018-03-30T08:23:54.812Z,10.20
2018-03-30T08:24:54.818Z,10.30
2018-03-30T08:25:54.832Z,9.90
2018-03-30T08:26:54.868Z,10.30
2018-03-30T08:27:54.863Z,10.10
2018-03-30T08:28:54.873Z,10.30
2018-03-30T08:29:54.885Z,9.90
2018-03-30T08:30:54.899Z,10.00
2018-03-30T08:31:54.932Z,10.10
2018-03-30T08:32:54.928Z,9.70
2018-03-30T08:33:54.939Z,9.40
2018-03-30T08:34:54.956Z,9.50
2018-03-30T08:35:54.969Z,10.10
2018-03-30T08:36:54.983Z,10.10
2018-03-30T08:37:54.995Z,9.70
2018-03-30T08:38:55.010Z,9.40
2018-03-30T08:39:55.024Z,9.90
2018-03-30T08:40:55.037Z,10.00
2018-03-30T08:41:55.133Z,9.50
2018-03-30T08:42:55.068Z,9.20
2018-03-30T08:43:55.081Z,9.80
2018-03-30T08:44:55.094Z,9.00
2018-03-30T08:45:55.107Z,9.40
2018-03-30T08:46:55.124Z,9.20
2018-03-30T08:47:55.136Z,9.00
2018-03-30T08:48:55.212Z,10.00
2018-03-30T08:49:55.171Z,9.50
2018-03-30T08:50:55.178Z,9.40
2018-03-30T08:51:55.190Z,9.60
2018-03-30T08:52:55.204Z,9.60
2018-03-30T08:53:55.218Z,9.40
2018-03-30T08:54:55.290Z,8.90
2018-03-30T08:55:55.249Z,10.00
2018-03-30T08:56:55.261Z,9.50
2018-03-30T08:57:55.276Z,10.20
2018-03-30T08:58:55.290Z,9.30
2018-03-30T08:59:55.304Z,9.60
2018-03-30T09:00:55.320Z,9.40
2018-03-30T09:01:55.337Z,9.50
2018-03-30T09:02:55.349Z,9.50
2018-03-30T09:03:55.365Z,9.50
2018-03-30T09:04:55.376Z,9.50
2018-03-30T09:05:55.421Z,9.40
2018-03-30T09:06:55.404Z,10.10
2018-03-30T09:07:55.434Z,9.30
2018-03-30T09:08:55.436Z,10.80
2018-03-30T09:09:55.445Z,9.80
2018-03-30T09:10:55.459Z,10.50
2018-03-30T09:11:55.489Z,9.80
2018-03-30T09:12:55.489Z,9.80
2018-03-30T09:13:55.509Z,9.80
2018-03-30T09:14:55.523Z,10.00
2018-03-30T09:15:55.537Z,9.40
2018-03-30T09:16:55.546Z,10.10
2018-03-30T09:17:55.563Z,10.10
2018-03-30T09:18:55.576Z,9.60
2018-03-30T09:19:55.585Z,9.90
2018-03-30T09:20:55.601Z,10.00
2018-03-30T09:21:55.618Z,9.40
2018-03-30T09:22:55.631Z,10.00
2018-03-30T09:23:55.647Z,9.90
2018-03-30T09:24:55.661Z,9.50
2018-03-30T09:25:55.675Z,9.80
2018-03-30T09:26:55.688Z,9.00
2018-03-30T09:27:55.695Z,9.30
2018-03-30T09:28:55.708Z,9.40
2018-03-30T09:29:55.725Z,8.50
2018-03-30T09:30:55.739Z,9.00
2018-03-30T09:31:55.755Z,9.20
2018-03-30T09:32:55.781Z,9.40
2018-03-30T09:33:55.803Z,8.80
2018-03-30T09:34:55.799Z,8.80
2018-03-30T09:35:55.823Z,9.10
2018-03-30T09:36:55.835Z,9.50
2018-03-30T09:37:55.843Z,8.80
2018-03-30T09:38:55.863Z,8.90
2018-03-30T09:39:55.877Z,9.10
2018-03-30T09:40:55.890Z,9.10
2018-03-30T09:41:55.906Z,8.80
2018-03-30T09:43:55.932Z,9.00
2018-03-30T09:44:55.951Z,8.40
2018-03-30T09:45:55.985Z,8.30
2018-03-30T09:46:55.981Z,8.20
2018-03-30T09:47:55.993Z,8.50
2018-03-30T09:48:56.006Z,8.10
2018-03-30T09:49:56.029Z,9.00
2018-03-30T09:50:56.039Z,8.30
2018-03-30T09:51:56.060Z,8.70
2018-03-30T09:52:56.090Z,8.60
2018-03-30T09:53:56.084Z,8.60
2018-03-30T09:54:56.096Z,8.40
2018-03-30T09:55:56.112Z,8.70
2018-03-30T09:56:56.126Z,7.70
2018-03-30T09:57:56.146Z,7.40
2018-03-30T09:58:56.157Z,7.30
2018-03-30T09:59:56.171Z,7.10
2018-03-30T10:00:56.188Z,6.60
2018-03-30T10:01:56.202Z,6.90
2018-03-30T10:02:56.218Z,6.80
2018-03-30T10:03:56.231Z,6.50
2018-03-30T10:04:56.245Z,6.50
2018-03-30T10:05:56.262Z,6.70
2018-03-30T10:06:56.281Z,6.40
2018-03-30T10:07:56.290Z,6.60
2018-03-30T10:08:56.315Z,6.80
2018-03-30T10:09:56.341Z,6.60
2018-03-30T10:10:56.334Z,6.40
2018-03-30T10:11:56.351Z,6.40
2018-03-30T10:12:56.364Z,6.60
2018-03-30T10:13:56.381Z,6.10
2018-03-30T10:14:56.393Z,6.50
2018-03-30T10:15:56.415Z,6.50
2018-03-30T10:16:56.448Z,6.60
2018-03-30T10:17:57.249Z,5.90
2018-03-30T10:18:56.479Z,6.40
2018-03-30T10:19:56.787Z,6.00
2018-03-30T10:20:56.490Z,6.10
2018-03-30T10:21:56.504Z,6.60
2018-03-30T10:22:56.515Z,6.00
2018-03-30T10:23:56.540Z,6.00
2018-03-30T10:24:56.541Z,5.90
2018-03-30T10:25:56.558Z,5.80
2018-03-30T10:26:56.588Z,5.70
2018-03-30T10:27:56.591Z,5.70
2018-03-30T10:28:56.609Z,5.80
2018-03-30T10:29:56.623Z,5.30
2018-03-30T10:30:56.631Z,5.70
2018-03-30T10:31:56.649Z,9.20
2018-03-30T10:32:56.667Z,5.30
2018-03-30T10:33:56.676Z,5.50
2018-03-30T10:34:57.430Z,5.50
2018-03-30T10:35:56.715Z,5.70
2018-03-30T10:37:57.215Z,5.20
2018-03-30T10:38:56.758Z,4.90
2018-03-30T10:39:56.778Z,4.70
2018-03-30T10:40:56.783Z,5.30
2018-03-30T10:41:56.798Z,5.20
2018-03-30T10:42:56.811Z,5.30
2018-03-30T10:43:56.825Z,5.40
2018-03-30T10:44:56.839Z,5.40
2018-03-30T10:45:56.870Z,5.50
2018-03-30T10:46:56.871Z,5.20
2018-03-30T10:47:56.885Z,5.80
2018-03-30T10:48:56.900Z,6.00
2018-03-30T10:49:56.918Z,5.20
2018-03-30T10:50:56.927Z,5.40
2018-03-30T10:51:56.949Z,5.20
2018-03-30T10:52:56.963Z,5.10
2018-03-30T10:53:56.976Z,5.40
2018-03-30T10:54:56.992Z,5.10
2018-03-30T10:55:57.010Z,5.00
2018-03-30T10:56:57.020Z,5.20
2018-03-30T10:57:57.036Z,5.40
2018-03-30T10:58:57.051Z,5.00
2018-03-30T10:59:57.065Z,4.60
2018-03-30T11:00:57.088Z,4.30
2018-03-30T11:01:57.097Z,4.10
2018-03-30T11:02:57.120Z,4.10
2018-03-30T11:03:57.127Z,4.70
2018-03-30T11:04:57.142Z,4.00
2018-03-30T11:05:57.159Z,4.50
2018-03-30T11:06:57.176Z,3.90
2018-03-30T11:07:57.186Z,3.80
2018-03-30T11:08:57.255Z,3.40
2018-03-30T11:09:57.223Z,3.60
2018-03-30T11:10:57.232Z,3.60
2018-03-30T11:11:57.248Z,3.60
2018-03-30T11:12:57.268Z,3.00
2018-03-30T11:13:57.280Z,3.00
2018-03-30T11:14:57.297Z,3.20
2018-03-30T11:15:57.310Z,2.90
2018-03-30T11:16:57.328Z,3.00
2018-03-30T11:17:57.389Z,3.00
2018-03-30T11:18:57.368Z,2.60
2018-03-30T11:19:57.370Z,3.00
2018-03-30T11:20:57.387Z,2.70
2018-03-30T11:21:57.424Z,2.70
2018-03-30T11:22:57.421Z,2.60
2018-03-30T11:23:57.433Z,2.70
2018-03-30T11:24:57.591Z,2.90
2018-03-30T11:25:57.464Z,2.90
2018-03-30T11:26:57.476Z,2.80
2018-03-30T11:27:57.493Z,2.70
2018-03-30T11:28:57.517Z,3.00
2018-03-30T11:29:57.524Z,3.00
2018-03-30T11:30:57.543Z,2.70
2018-03-30T11:31:57.559Z,3.10
2018-03-30T11:32:57.567Z,2.30
2018-03-30T11:33:57.889Z,2.40
2018-03-30T11:34:57.601Z,2.50
2018-03-30T11:35:57.616Z,2.70
2018-03-30T11:36:57.633Z,2.70
2018-03-30T11:37:57.649Z,2.40
2018-03-30T11:38:57.662Z,2.30
2018-03-30T11:39:57.675Z,2.10
2018-03-30T11:40:57.691Z,1.90
2018-03-30T11:41:57.706Z,2.30
2018-03-30T11:42:57.721Z,1.70
2018-03-30T11:43:57.739Z,1.80
2018-03-30T11:44:57.756Z,2.10
2018-03-30T11:45:57.773Z,2.10
2018-03-30T11:46:57.785Z,2.20
2018-03-30T11:47:57.814Z,2.20
2018-03-30T11:48:57.820Z,2.60
2018-03-30T11:49:57.830Z,2.40
2018-03-30T11:50:57.844Z,2.10
2018-03-30T11:51:57.861Z,2.00
2018-03-30T11:52:57.881Z,2.00
2018-03-30T11:53:57.892Z,1.70
2018-03-30T11:54:57.906Z,1.80
2018-03-30T11:55:57.939Z,2.30
2018-03-30T11:56:57.940Z,2.60
2018-03-30T11:57:57.966Z,2.50
2018-03-30T11:58:57.976Z,2.70
2018-03-30T11:59:57.983Z,2.40
2018-03-30T12:00:58.010Z,2.50
2018-03-30T12:01:58.033Z,2.60
2018-03-30T12:02:58.036Z,2.60
2018-03-30T12:03:58.049Z,2.70
2018-03-30T12:04:58.080Z,2.40
2018-03-30T12:05:58.079Z,2.70
2018-03-30T12:06:58.098Z,2.80
2018-03-30T12:07:58.106Z,2.80
2018-03-30T12:08:58.127Z,2.80
2018-03-30T12:09:58.147Z,2.70
2018-03-30T12:10:58.155Z,2.90
2018-03-30T12:11:58.168Z,2.80
2018-03-30T12:12:58.207Z,3.00
2018-03-30T12:13:58.212Z,3.10
2018-03-30T12:14:58.214Z,3.20
2018-03-30T12:15:58.239Z,3.00
2018-03-30T12:16:58.247Z,3.10
2018-03-30T12:17:58.263Z,3.00
2018-03-30T12:18:58.301Z,2.90
2018-03-30T12:19:58.301Z,3.20
2018-03-30T12:20:58.312Z,3.10
2018-03-30T12:21:58.327Z,3.30
2018-03-30T12:22:58.342Z,3.30
2018-03-30T12:23:58.362Z,3.20
2018-03-30T12:24:58.377Z,3.10
2018-03-30T12:25:58.391Z,3.00
2018-03-30T12:26:58.405Z,2.90
2018-03-30T12:27:58.423Z,2.90
2018-03-30T12:28:58.433Z,2.90
2018-03-30T12:29:58.452Z,3.40
2018-03-30T12:30:58.467Z,3.50
2018-03-30T12:31:58.485Z,3.50
2018-03-30T12:32:58.499Z,3.60
2018-03-30T12:33:58.530Z,3.50
2018-03-30T12:34:58.527Z,3.50
2018-03-30T12:35:58.545Z,4.00
2018-03-30T12:36:58.565Z,4.10
2018-03-30T12:37:58.648Z,4.00
2018-03-30T12:38:58.589Z,3.90
2018-03-30T12:39:58.624Z,3.80
2018-03-30T12:40:58.630Z,3.50
2018-03-30T12:41:58.641Z,4.10
2018-03-30T12:42:58.655Z,4.10
2018-03-30T12:43:58.674Z,3.80
2018-03-30T12:44:58.689Z,4.40
2018-03-30T12:45:58.704Z,4.70
2018-03-30T12:46:58.721Z,4.10
2018-03-30T12:47:58.836Z,4.40
2018-03-30T12:48:58.756Z,4.20
2018-03-30T12:49:58.772Z,3.90
2018-03-30T12:50:58.784Z,3.50
2018-03-30T12:51:58.803Z,3.50
2018-03-30T12:52:58.891Z,3.90
2018-03-30T12:53:58.838Z,3.40
2018-03-30T12:54:58.846Z,3.20
2018-03-30T12:55:58.864Z,3.50
2018-03-30T12:56:58.885Z,3.20
2018-03-30T12:57:58.895Z,3.00
2018-03-30T12:58:58.912Z,3.20
2018-03-30T12:59:58.949Z,3.10
2018-03-30T13:00:59.023Z,3.00
2018-03-30T13:01:58.963Z,3.40
2018-03-30T13:02:58.973Z,3.30
2018-03-30T13:03:58.989Z,3.30
2018-03-30T13:04:59.007Z,3.50